sensor_id;sensor_type;location;lat;lon;timestamp;pressure;altitude;pressure_sealevel;temperature;humidity
29247;BME280;16272;48.188;9.964;2024-01-15T00:02:06;94710.94;;;-2.57;77.51
29247;BME280;16272;48.188;9.964;2024-01-15T00:04:38;94710.41;;;-2.62;77.68
29247;BME280;16272;48.188;9.964;2024-01-15T00:07:04;94713.13;;;-2.64;77.73
29247;BME280;16272;48.188;9.964;2024-01-15T00:09:30;94706.38;;;-2.81;77.87
29247;BME280;16272;48.188;9.964;2024-01-15T00:11:55;94706.38;;;-2.81;78.30
29247;BME280;16272;48.188;9.964;2024-01-15T00:14:20;94702.84;;;-2.80;78.43
29247;BME280;16272;48.188;9.964;2024-01-15T00:16:46;94699.38;;;-2.93;78.10
29247;BME280;16272;48.188;9.964;2024-01-15T00:19:12;94699.72;;;-2.85;77.83
29247;BME280;16272;48.188;9.964;2024-01-15T00:21:37;94696.75;;;-2.79;77.78
29247;BME280;16272;48.188;9.964;2024-01-15T00:24:03;94696.59;;;-2.90;78.05
29247;BME280;16272;48.188;9.964;2024-01-15T00:26:28;94693.72;;;-3.00;78.31
29247;BME280;16272;48.188;9.964;2024-01-15T00:28:53;94690.53;;;-2.90;77.80
29247;BME280;16272;48.188;9.964;2024-01-15T00:31:18;94688.81;;;-3.04;78.87
29247;BME280;16272;48.188;9.964;2024-01-15T00:33:44;94689.75;;;-3.05;78.95
29247;BME280;16272;48.188;9.964;2024-01-15T00:36:09;94692.53;;;-3.08;78.34
29247;BME280;16272;48.188;9.964;2024-01-15T00:38:34;94695.47;;;-3.00;78.13
29247;BME280;16272;48.188;9.964;2024-01-15T00:41:00;94695.56;;;-3.29;79.14
29247;BME280;16272;48.188;9.964;2024-01-15T00:43:25;94703.69;;;-3.21;78.98
29247;BME280;16272;48.188;9.964;2024-01-15T00:45:50;94706.09;;;-3.03;78.96
29247;BME280;16272;48.188;9.964;2024-01-15T00:48:15;94710.16;;;-3.14;79.04
29247;BME280;16272;48.188;9.964;2024-01-15T00:50:41;94701.66;;;-3.16;79.64
29247;BME280;16272;48.188;9.964;2024-01-15T00:53:06;94704.97;;;-3.14;78.98
29247;BME280;16272;48.188;9.964;2024-01-15T00:55:31;94700.06;;;-3.18;79.52
29247;BME280;16272;48.188;9.964;2024-01-15T00:57:57;94700.19;;;-3.20;79.07
29247;BME280;16272;48.188;9.964;2024-01-15T01:00:22;94704.59;;;-3.07;79.64
29247;BME280;16272;48.188;9.964;2024-01-15T01:02:47;94705.84;;;-3.13;78.93
29247;BME280;16272;48.188;9.964;2024-01-15T01:05:12;94699.22;;;-3.04;78.49
29247;BME280;16272;48.188;9.964;2024-01-15T01:07:38;94706.66;;;-3.12;78.90
29247;BME280;16272;48.188;9.964;2024-01-15T01:10:03;94699.78;;;-3.14;79.22
29247;BME280;16272;48.188;9.964;2024-01-15T01:12:29;94687.66;;;-3.13;78.50
29247;BME280;16272;48.188;9.964;2024-01-15T01:14:55;94687.47;;;-3.24;78.72
29247;BME280;16272;48.188;9.964;2024-01-15T01:17:20;94687.47;;;-3.24;79.16
29247;BME280;16272;48.188;9.964;2024-01-15T01:19:45;94699.97;;;-3.17;78.82
29247;BME280;16272;48.188;9.964;2024-01-15T01:22:11;94702.72;;;-3.05;78.04
29247;BME280;16272;48.188;9.964;2024-01-15T01:24:36;94713.19;;;-3.34;78.76
29247;BME280;16272;48.188;9.964;2024-01-15T01:27:01;94711.69;;;-3.38;78.54
29247;BME280;16272;48.188;9.964;2024-01-15T01:29:26;94710.94;;;-3.26;79.16
29247;BME280;16272;48.188;9.964;2024-01-15T01:31:52;94711.88;;;-3.27;78.95
29247;BME280;16272;48.188;9.964;2024-01-15T01:34:17;94708.19;;;-3.37;79.30
29247;BME280;16272;48.188;9.964;2024-01-15T01:36:43;94719.66;;;-3.27;79.14
29247;BME280;16272;48.188;9.964;2024-01-15T01:39:08;94726.06;;;-3.33;79.45
29247;BME280;16272;48.188;9.964;2024-01-15T01:41:34;94737.66;;;-3.38;79.54
29247;BME280;16272;48.188;9.964;2024-01-15T01:43:59;94735.50;;;-3.32;79.02
29247;BME280;16272;48.188;9.964;2024-01-15T01:46:27;94734.31;;;-3.11;78.40
29247;BME280;16272;48.188;9.964;2024-01-15T01:48:53;94730.66;;;-3.09;78.38
29247;BME280;16272;48.188;9.964;2024-01-15T01:51:20;94735.03;;;-2.95;78.00
29247;BME280;16272;48.188;9.964;2024-01-15T01:53:47;94739.84;;;-3.03;79.02
29247;BME280;16272;48.188;9.964;2024-01-15T01:56:13;94737.03;;;-3.00;78.56
29247;BME280;16272;48.188;9.964;2024-01-15T01:58:39;94731.28;;;-2.91;78.53
29247;BME280;16272;48.188;9.964;2024-01-15T02:01:05;94728.81;;;-2.65;77.59
29247;BME280;16272;48.188;9.964;2024-01-15T02:03:30;94721.63;;;-2.89;78.63
29247;BME280;16272;48.188;9.964;2024-01-15T02:05:56;94723.00;;;-2.83;77.64
29247;BME280;16272;48.188;9.964;2024-01-15T02:08:22;94723.47;;;-2.77;77.73
29247;BME280;16272;48.188;9.964;2024-01-15T02:10:47;94712.91;;;-2.61;77.11
29247;BME280;16272;48.188;9.964;2024-01-15T02:13:13;94712.53;;;-2.82;77.18
29247;BME280;16272;48.188;9.964;2024-01-15T02:15:38;94703.41;;;-2.74;76.99
29247;BME280;16272;48.188;9.964;2024-01-15T02:18:05;94703.59;;;-2.78;76.76
29247;BME280;16272;48.188;9.964;2024-01-15T02:20:31;94706.78;;;-2.87;76.62
29247;BME280;16272;48.188;9.964;2024-01-15T02:25:28;94706.13;;;-2.90;76.77
29247;BME280;16272;48.188;9.964;2024-01-15T02:27:53;94703.09;;;-2.70;75.73
29247;BME280;16272;48.188;9.964;2024-01-15T02:30:19;94707.03;;;-2.77;76.30
29247;BME280;16272;48.188;9.964;2024-01-15T02:32:44;94704.28;;;-2.88;76.25
29247;BME280;16272;48.188;9.964;2024-01-15T02:35:10;94704.75;;;-2.96;76.40
29247;BME280;16272;48.188;9.964;2024-01-15T02:37:35;94696.97;;;-2.96;77.15
29247;BME280;16272;48.188;9.964;2024-01-15T02:40:01;94703.69;;;-3.21;77.64
29247;BME280;16272;48.188;9.964;2024-01-15T02:42:26;94699.84;;;-3.01;76.92
29247;BME280;16272;48.188;9.964;2024-01-15T02:44:51;94700.91;;;-3.18;77.09
29247;BME280;16272;48.188;9.964;2024-01-15T02:47:16;94693.84;;;-3.16;77.05
29247;BME280;16272;48.188;9.964;2024-01-15T02:49:42;94701.47;;;-3.12;76.76
29247;BME280;16272;48.188;9.964;2024-01-15T02:52:07;94699.97;;;-3.17;76.54
29247;BME280;16272;48.188;9.964;2024-01-15T02:54:32;94698.69;;;-3.24;76.44
29247;BME280;16272;48.188;9.964;2024-01-15T02:56:58;94707.81;;;-3.31;77.27
29247;BME280;16272;48.188;9.964;2024-01-15T02:59:23;94715.41;;;-3.28;77.18
29247;BME280;16272;48.188;9.964;2024-01-15T03:01:48;94715.94;;;-3.23;76.89
29247;BME280;16272;48.188;9.964;2024-01-15T03:04:14;94712.59;;;-3.25;77.11
29247;BME280;16272;48.188;9.964;2024-01-15T03:06:39;94703.88;;;-3.24;76.74
29247;BME280;16272;48.188;9.964;2024-01-15T03:09:04;94707.03;;;-3.19;77.12
29247;BME280;16272;48.188;9.964;2024-01-15T03:11:36;94708.44;;;-3.27;76.68
29247;BME280;16272;48.188;9.964;2024-01-15T03:14:02;94715.94;;;-3.23;76.49
29247;BME280;16272;48.188;9.964;2024-01-15T03:16:27;94712.31;;;-3.35;76.99
29247;BME280;16272;48.188;9.964;2024-01-15T03:18:52;94705.56;;;-3.23;77.31
29247;BME280;16272;48.188;9.964;2024-01-15T03:21:18;94695.09;;;-3.21;77.00
29247;BME280;16272;48.188;9.964;2024-01-15T03:23:43;94710.09;;;-3.26;77.64
29247;BME280;16272;48.188;9.964;2024-01-15T03:26:08;94712.13;;;-3.17;77.50
29247;BME280;16272;48.188;9.964;2024-01-15T03:28:34;94710.50;;;-2.91;76.23
29247;BME280;16272;48.188;9.964;2024-01-15T03:30:59;94703.75;;;-2.93;76.27
29247;BME280;16272;48.188;9.964;2024-01-15T03:33:24;94698.75;;;-2.97;76.49
29247;BME280;16272;48.188;9.964;2024-01-15T03:35:49;94697.22;;;-2.86;76.62
29247;BME280;16272;48.188;9.964;2024-01-15T03:38:15;94688.72;;;-2.75;76.32
29247;BME280;16272;48.188;9.964;2024-01-15T03:40:40;94686.31;;;-2.51;75.63
29247;BME280;16272;48.188;9.964;2024-01-15T03:43:05;94682.16;;;-2.41;75.32
29247;BME280;16272;48.188;9.964;2024-01-15T03:45:30;94678.66;;;-2.40;74.85
29247;BME280;16272;48.188;9.964;2024-01-15T03:47:56;94678.88;;;-2.30;74.67
29247;BME280;16272;48.188;9.964;2024-01-15T03:50:21;94675.78;;;-2.23;73.27
29247;BME280;16272;48.188;9.964;2024-01-15T03:52:46;94674.13;;;-2.11;73.25
29247;BME280;16272;48.188;9.964;2024-01-15T03:55:11;94665.78;;;-2.16;72.30
29247;BME280;16272;48.188;9.964;2024-01-15T03:57:37;94666.84;;;-2.06;71.46
29247;BME280;16272;48.188;9.964;2024-01-15T04:00:02;94673.28;;;-2.11;70.48
29247;BME280;16272;48.188;9.964;2024-01-15T04:02:28;94671.84;;;-2.03;70.77
29247;BME280;16272;48.188;9.964;2024-01-15T04:04:54;94662.78;;;-1.97;71.26
29247;BME280;16272;48.188;9.964;2024-01-15T04:07:19;94665.59;;;-1.87;69.60
29247;BME280;16272;48.188;9.964;2024-01-15T04:09:44;94670.38;;;-1.94;71.18
29247;BME280;16272;48.188;9.964;2024-01-15T04:12:09;94673.28;;;-1.86;70.87
29247;BME280;16272;48.188;9.964;2024-01-15T04:14:35;94673.91;;;-1.69;70.75
29247;BME280;16272;48.188;9.964;2024-01-15T04:17:00;94669.97;;;-1.75;71.13
29247;BME280;16272;48.188;9.964;2024-01-15T04:19:25;94668.59;;;-1.68;70.89
29247;BME280;16272;48.188;9.964;2024-01-15T04:21:51;94660.38;;;-1.74;71.14
29247;BME280;16272;48.188;9.964;2024-01-15T04:24:16;94658.09;;;-1.79;70.32
29247;BME280;16272;48.188;9.964;2024-01-15T04:26:43;94654.44;;;-1.63;70.63
29247;BME280;16272;48.188;9.964;2024-01-15T04:29:08;94633.50;;;-1.49;71.16
29247;BME280;16272;48.188;9.964;2024-01-15T04:31:33;94634.13;;;-1.58;71.13
29247;BME280;16272;48.188;9.964;2024-01-15T04:33:59;94627.25;;;-1.72;71.59
29247;BME280;16272;48.188;9.964;2024-01-15T04:36:24;94621.88;;;-1.95;71.95
29247;BME280;16272;48.188;9.964;2024-01-15T04:38:49;94622.09;;;-1.85;72.54
29247;BME280;16272;48.188;9.964;2024-01-15T04:41:16;94640.16;;;-1.71;71.31
29247;BME280;16272;48.188;9.964;2024-01-15T04:43:41;94631.44;;;-1.82;72.14
29247;BME280;16272;48.188;9.964;2024-01-15T04:46:07;94629.16;;;-1.74;72.53
29247;BME280;16272;48.188;9.964;2024-01-15T04:48:32;94619.88;;;-1.65;71.37
29247;BME280;16272;48.188;9.964;2024-01-15T04:50:58;94617.72;;;-1.85;71.94
29247;BME280;16272;48.188;9.964;2024-01-15T04:53:23;94625.00;;;-1.77;72.10
29247;BME280;16272;48.188;9.964;2024-01-15T04:55:48;94624.50;;;-1.82;71.87
29247;BME280;16272;48.188;9.964;2024-01-15T04:58:14;94627.81;;;-1.67;71.72
29247;BME280;16272;48.188;9.964;2024-01-15T05:00:39;94622.16;;;-1.61;72.06
29247;BME280;16272;48.188;9.964;2024-01-15T05:03:04;94624.31;;;-1.55;71.78
29247;BME280;16272;48.188;9.964;2024-01-15T05:05:30;94626.81;;;-1.53;71.62
29247;BME280;16272;48.188;9.964;2024-01-15T05:07:55;94632.56;;;-1.61;72.38
29247;BME280;16272;48.188;9.964;2024-01-15T05:10:20;94625.78;;;-1.51;72.42
29247;BME280;16272;48.188;9.964;2024-01-15T05:12:45;94632.63;;;-1.37;71.88
29247;BME280;16272;48.188;9.964;2024-01-15T05:15:11;94633.63;;;-1.26;71.08
29247;BME280;16272;48.188;9.964;2024-01-15T05:17:36;94628.66;;;-1.30;71.12
29247;BME280;16272;48.188;9.964;2024-01-15T05:20:01;94633.56;;;-1.38;71.46
29247;BME280;16272;48.188;9.964;2024-01-15T05:22:28;94628.22;;;-1.36;71.93
29247;BME280;16272;48.188;9.964;2024-01-15T05:24:53;94624.59;;;-1.34;71.48
29247;BME280;16272;48.188;9.964;2024-01-15T05:27:18;94626.56;;;-1.24;71.64
29247;BME280;16272;48.188;9.964;2024-01-15T05:29:44;94630.50;;;-1.19;71.02
29247;BME280;16272;48.188;9.964;2024-01-15T05:32:09;94634.72;;;-1.05;70.50
29247;BME280;16272;48.188;9.964;2024-01-15T05:34:34;94627.31;;;-0.98;69.58
29247;BME280;16272;48.188;9.964;2024-01-15T05:37:00;94634.25;;;-0.99;69.95
29247;BME280;16272;48.188;9.964;2024-01-15T05:39:25;94638.19;;;-1.17;70.57
29247;BME280;16272;48.188;9.964;2024-01-15T05:41:50;94634.78;;;-1.18;71.55
29247;BME280;16272;48.188;9.964;2024-01-15T05:44:16;94644.59;;;-1.21;71.61
29247;BME280;16272;48.188;9.964;2024-01-15T05:46:41;94642.38;;;-1.15;72.41
29247;BME280;16272;48.188;9.964;2024-01-15T05:49:06;94645.28;;;-1.19;72.65
29247;BME280;16272;48.188;9.964;2024-01-15T05:51:31;94643.13;;;-1.25;72.66
29247;BME280;16272;48.188;9.964;2024-01-15T05:53:57;94649.13;;;-1.12;71.34
29247;BME280;16272;48.188;9.964;2024-01-15T05:56:22;94661.16;;;-1.22;72.13
29247;BME280;16272;48.188;9.964;2024-01-15T05:58:49;94659.06;;;-1.30;72.83
29247;BME280;16272;48.188;9.964;2024-01-15T06:01:14;94663.25;;;-1.27;73.25
29247;BME280;16272;48.188;9.964;2024-01-15T06:03:39;94666.38;;;-1.48;74.19
29247;BME280;16272;48.188;9.964;2024-01-15T06:06:05;94673.09;;;-1.57;73.67
29247;BME280;16272;48.188;9.964;2024-01-15T06:08:30;94657.22;;;-1.41;73.60
29247;BME280;16272;48.188;9.964;2024-01-15T06:10:56;94653.75;;;-1.28;73.12
29247;BME280;16272;48.188;9.964;2024-01-15T06:13:21;94658.66;;;-1.37;73.35
29247;BME280;16272;48.188;9.964;2024-01-15T06:15:46;94650.97;;;-1.51;73.72
29247;BME280;16272;48.188;9.964;2024-01-15T06:18:12;94649.63;;;-1.44;74.25
29247;BME280;16272;48.188;9.964;2024-01-15T06:20:37;94654.63;;;-1.41;74.44
29247;BME280;16272;48.188;9.964;2024-01-15T06:23:03;94655.47;;;-1.53;74.03
29247;BME280;16272;48.188;9.964;2024-01-15T06:25:29;94652.22;;;-1.44;73.74
29247;BME280;16272;48.188;9.964;2024-01-15T06:27:54;94651.50;;;-1.46;74.38
29247;BME280;16272;48.188;9.964;2024-01-15T06:30:19;94661.78;;;-1.44;74.26
29247;BME280;16272;48.188;9.964;2024-01-15T06:32:45;94661.47;;;-1.40;74.16
29247;BME280;16272;48.188;9.964;2024-01-15T06:35:10;94654.34;;;-1.49;74.71
29247;BME280;16272;48.188;9.964;2024-01-15T06:37:36;94647.00;;;-1.31;74.08
29247;BME280;16272;48.188;9.964;2024-01-15T06:40:02;94647.22;;;-1.34;73.98
29247;BME280;16272;48.188;9.964;2024-01-15T06:42:28;94650.34;;;-1.42;74.71
29247;BME280;16272;48.188;9.964;2024-01-15T06:44:53;94640.75;;;-1.41;74.65
29247;BME280;16272;48.188;9.964;2024-01-15T06:47:18;94647.81;;;-1.31;73.99
29247;BME280;16272;48.188;9.964;2024-01-15T06:49:44;94643.66;;;-1.46;74.86
29247;BME280;16272;48.188;9.964;2024-01-15T06:52:09;94646.03;;;-1.30;74.42
29247;BME280;16272;48.188;9.964;2024-01-15T06:54:34;94644.75;;;-1.49;74.84
29247;BME280;16272;48.188;9.964;2024-01-15T06:57:00;94640.13;;;-1.45;74.49
29247;BME280;16272;48.188;9.964;2024-01-15T06:59:25;94636.22;;;-1.51;74.79
29247;BME280;16272;48.188;9.964;2024-01-15T07:01:50;94636.34;;;-1.28;74.41
29247;BME280;16272;48.188;9.964;2024-01-15T07:04:16;94638.03;;;-1.40;74.62
29247;BME280;16272;48.188;9.964;2024-01-15T07:06:41;94638.03;;;-1.40;74.95
29247;BME280;16272;48.188;9.964;2024-01-15T07:09:06;94636.16;;;-1.38;74.49
29247;BME280;16272;48.188;9.964;2024-01-15T07:11:33;94636.94;;;-1.61;75.14
29247;BME280;16272;48.188;9.964;2024-01-15T07:13:58;94622.84;;;-1.46;75.25
29247;BME280;16272;48.188;9.964;2024-01-15T07:16:23;94618.88;;;-1.39;74.34
29247;BME280;16272;48.188;9.964;2024-01-15T07:18:48;94620.06;;;-1.56;73.78
29247;BME280;16272;48.188;9.964;2024-01-15T07:21:14;94619.31;;;-1.45;73.65
29247;BME280;16272;48.188;9.964;2024-01-15T07:23:39;94620.03;;;-1.43;74.10
29247;BME280;16272;48.188;9.964;2024-01-15T07:26:05;94612.59;;;-1.36;73.26
29247;BME280;16272;48.188;9.964;2024-01-15T07:28:30;94614.47;;;-1.25;72.96
29247;BME280;16272;48.188;9.964;2024-01-15T07:30:57;94607.81;;;-1.30;73.31
29247;BME280;16272;48.188;9.964;2024-01-15T07:33:22;94617.38;;;-1.30;72.78
29247;BME280;16272;48.188;9.964;2024-01-15T07:35:47;94617.78;;;-1.23;72.22
29247;BME280;16272;48.188;9.964;2024-01-15T07:38:12;94608.59;;;-1.16;71.45
29247;BME280;16272;48.188;9.964;2024-01-15T07:40:38;94607.47;;;-1.25;70.83
29247;BME280;16272;48.188;9.964;2024-01-15T07:43:03;94598.41;;;-1.19;70.58
29247;BME280;16272;48.188;9.964;2024-01-15T07:45:29;94598.41;;;-1.19;71.25
29247;BME280;16272;48.188;9.964;2024-01-15T07:47:54;94595.91;;;-1.21;70.25
29247;BME280;16272;48.188;9.964;2024-01-15T07:50:19;94605.81;;;-1.02;69.90
29247;BME280;16272;48.188;9.964;2024-01-15T07:52:45;94603.63;;;-1.19;69.08
29247;BME280;16272;48.188;9.964;2024-01-15T07:55:10;94599.56;;;-1.23;69.54
29247;BME280;16272;48.188;9.964;2024-01-15T07:57:35;94595.41;;;-1.02;68.31
29247;BME280;16272;48.188;9.964;2024-01-15T08:00:01;94605.38;;;-0.96;68.15
29247;BME280;16272;48.188;9.964;2024-01-15T08:02:28;94616.41;;;-0.92;67.98
29247;BME280;16272;48.188;9.964;2024-01-15T08:04:54;94620.09;;;-0.95;68.66
29247;BME280;16272;48.188;9.964;2024-01-15T08:07:19;94611.84;;;-0.88;67.63
29247;BME280;16272;48.188;9.964;2024-01-15T08:09:44;94616.03;;;-0.99;68.92
29247;BME280;16272;48.188;9.964;2024-01-15T08:12:11;94617.47;;;-0.95;67.82
29247;BME280;16272;48.188;9.964;2024-01-15T08:14:37;94613.03;;;-0.81;67.63
29247;BME280;16272;48.188;9.964;2024-01-15T08:17:03;94616.47;;;-0.81;68.13
29247;BME280;16272;48.188;9.964;2024-01-15T08:19:28;94603.50;;;-0.94;67.02
29247;BME280;16272;48.188;9.964;2024-01-15T08:21:53;94607.50;;;-1.01;67.58
29247;BME280;16272;48.188;9.964;2024-01-15T08:24:18;94613.97;;;-0.82;67.78
29247;BME280;16272;48.188;9.964;2024-01-15T08:26:44;94604.88;;;-1.01;68.36
29247;BME280;16272;48.188;9.964;2024-01-15T08:29:10;94605.94;;;-0.79;67.19
29247;BME280;16272;48.188;9.964;2024-01-15T08:31:35;94598.72;;;-0.76;66.67
29247;BME280;16272;48.188;9.964;2024-01-15T08:34:01;94592.66;;;-0.76;67.02
29247;BME280;16272;48.188;9.964;2024-01-15T08:36:27;94600.34;;;-0.86;66.57
29247;BME280;16272;48.188;9.964;2024-01-15T08:38:54;94590.34;;;-0.92;66.37
29247;BME280;16272;48.188;9.964;2024-01-15T08:41:20;94587.69;;;-0.79;66.24
29247;BME280;16272;48.188;9.964;2024-01-15T08:43:45;94585.28;;;-0.82;66.01
29247;BME280;16272;48.188;9.964;2024-01-15T08:46:10;94595.78;;;-0.71;65.56
29247;BME280;16272;48.188;9.964;2024-01-15T08:48:36;94606.47;;;-0.63;65.75
29247;BME280;16272;48.188;9.964;2024-01-15T08:51:01;94603.38;;;-0.68;65.88
29247;BME280;16272;48.188;9.964;2024-01-15T08:53:27;94608.59;;;-0.68;65.70
29247;BME280;16272;48.188;9.964;2024-01-15T08:55:53;94606.50;;;-0.51;64.73
29247;BME280;16272;48.188;9.964;2024-01-15T08:58:18;94590.31;;;-0.32;64.68
29247;BME280;16272;48.188;9.964;2024-01-15T09:00:43;94601.47;;;-0.30;64.46
29247;BME280;16272;48.188;9.964;2024-01-15T09:03:09;94594.03;;;-0.12;64.65
29247;BME280;16272;48.188;9.964;2024-01-15T09:05:35;94601.63;;;-0.09;64.45
29247;BME280;16272;48.188;9.964;2024-01-15T09:08:00;94603.06;;;0.06;64.35
29247;BME280;16272;48.188;9.964;2024-01-15T09:10:25;94598.81;;;0.16;63.72
29247;BME280;16272;48.188;9.964;2024-01-15T09:12:51;94598.09;;;0.48;62.94
29247;BME280;16272;48.188;9.964;2024-01-15T09:15:16;94600.00;;;0.24;62.88
29247;BME280;16272;48.188;9.964;2024-01-15T09:17:42;94596.19;;;-0.06;63.10
29247;BME280;16272;48.188;9.964;2024-01-15T09:20:08;94599.72;;;-0.19;62.92
29247;BME280;16272;48.188;9.964;2024-01-15T09:22:34;94592.63;;;0.06;64.17
29247;BME280;16272;48.188;9.964;2024-01-15T09:24:59;94571.81;;;0.84;60.50
29247;BME280;16272;48.188;9.964;2024-01-15T09:27:25;94573.88;;;1.34;59.98
29247;BME280;16272;48.188;9.964;2024-01-15T09:29:51;94568.25;;;1.17;60.16
29247;BME280;16272;48.188;9.964;2024-01-15T09:32:17;94568.72;;;1.43;58.59
29247;BME280;16272;48.188;9.964;2024-01-15T09:34:42;94562.53;;;1.65;58.68
29247;BME280;16272;48.188;9.964;2024-01-15T09:37:07;94565.28;;;1.85;59.09
29247;BME280;16272;48.188;9.964;2024-01-15T09:39:32;94561.56;;;1.88;57.07
29247;BME280;16272;48.188;9.964;2024-01-15T09:41:58;94548.25;;;1.49;58.56
29247;BME280;16272;48.188;9.964;2024-01-15T09:44:25;94551.94;;;1.88;56.04
29247;BME280;16272;48.188;9.964;2024-01-15T09:46:51;94542.97;;;2.12;57.90
29247;BME280;16272;48.188;9.964;2024-01-15T09:49:17;94544.84;;;2.81;56.59
29247;BME280;16272;48.188;9.964;2024-01-15T09:51:43;94529.22;;;2.80;58.52
29247;BME280;16272;48.188;9.964;2024-01-15T09:54:08;94527.28;;;2.22;57.62
29247;BME280;16272;48.188;9.964;2024-01-15T09:56:34;94532.38;;;2.73;57.07
29247;BME280;16272;48.188;9.964;2024-01-15T09:59:01;94534.38;;;3.01;55.98
29247;BME280;16272;48.188;9.964;2024-01-15T10:01:26;94525.53;;;2.92;57.02
29247;BME280;16272;48.188;9.964;2024-01-15T10:03:52;94531.09;;;3.18;54.86
29247;BME280;16272;48.188;9.964;2024-01-15T10:06:18;94525.53;;;2.82;54.17
29247;BME280;16272;48.188;9.964;2024-01-15T10:08:51;94531.06;;;3.38;55.59
29247;BME280;16272;48.188;9.964;2024-01-15T10:11:17;94534.66;;;3.27;55.95
29247;BME280;16272;48.188;9.964;2024-01-15T10:13:46;94538.78;;;3.20;56.21
29247;BME280;16272;48.188;9.964;2024-01-15T10:16:11;94538.66;;;2.92;58.26
29247;BME280;16272;48.188;9.964;2024-01-15T10:18:36;94526.31;;;2.73;58.00
29247;BME280;16272;48.188;9.964;2024-01-15T10:21:04;94530.25;;;1.55;60.17
29247;BME280;16272;48.188;9.964;2024-01-15T10:23:32;94534.03;;;1.09;60.39
29247;BME280;16272;48.188;9.964;2024-01-15T10:25:57;94534.66;;;1.76;61.98
29247;BME280;16272;48.188;9.964;2024-01-15T10:28:26;94530.00;;;1.58;62.13
29247;BME280;16272;48.188;9.964;2024-01-15T10:30:53;94531.38;;;1.20;63.47
29247;BME280;16272;48.188;9.964;2024-01-15T10:33:22;94523.50;;;0.99;64.44
29247;BME280;16272;48.188;9.964;2024-01-15T10:35:51;94520.22;;;1.60;63.14
29247;BME280;16272;48.188;9.964;2024-01-15T10:38:18;94532.91;;;1.44;64.19
29247;BME280;16272;48.188;9.964;2024-01-15T10:40:47;94517.38;;;0.89;63.47
29247;BME280;16272;48.188;9.964;2024-01-15T10:43:12;94516.00;;;1.27;63.39
29247;BME280;16272;48.188;9.964;2024-01-15T10:45:38;94513.72;;;1.55;62.09
29247;BME280;16272;48.188;9.964;2024-01-15T10:48:03;94502.03;;;1.59;62.67
29247;BME280;16272;48.188;9.964;2024-01-15T10:50:29;94500.50;;;1.77;61.94
29247;BME280;16272;48.188;9.964;2024-01-15T10:52:55;94488.94;;;0.96;62.36
29247;BME280;16272;48.188;9.964;2024-01-15T10:55:23;94485.94;;;1.21;64.47
29247;BME280;16272;48.188;9.964;2024-01-15T10:57:49;94480.91;;;1.51;62.13
29247;BME280;16272;48.188;9.964;2024-01-15T11:00:14;94470.28;;;1.00;63.87
29247;BME280;16272;48.188;9.964;2024-01-15T11:02:40;94469.75;;;1.27;63.60
29247;BME280;16272;48.188;9.964;2024-01-15T11:05:06;94469.53;;;2.23;61.04
29247;BME280;16272;48.188;9.964;2024-01-15T11:07:32;94468.44;;;1.95;60.66
29247;BME280;16272;48.188;9.964;2024-01-15T11:09:57;94468.38;;;1.44;62.55
29247;BME280;16272;48.188;9.964;2024-01-15T11:12:25;94461.41;;;1.34;63.12
29247;BME280;16272;48.188;9.964;2024-01-15T11:14:51;94459.72;;;1.84;61.94
29247;BME280;16272;48.188;9.964;2024-01-15T11:17:18;94450.47;;;1.71;61.93
29247;BME280;16272;48.188;9.964;2024-01-15T11:19:45;94458.38;;;2.41;61.86
29247;BME280;16272;48.188;9.964;2024-01-15T11:25:12;94462.13;;;1.67;62.32
29247;BME280;16272;48.188;9.964;2024-01-15T11:27:47;94447.47;;;1.85;62.52
29247;BME280;16272;48.188;9.964;2024-01-15T11:30:13;94457.59;;;1.47;64.07
29247;BME280;16272;48.188;9.964;2024-01-15T11:32:39;94437.84;;;1.34;64.06
29247;BME280;16272;48.188;9.964;2024-01-15T11:35:09;94443.91;;;1.13;65.08
29247;BME280;16272;48.188;9.964;2024-01-15T11:40:36;94445.31;;;0.96;65.63
29247;BME280;16272;48.188;9.964;2024-01-15T11:43:03;94444.75;;;0.93;66.55
29247;BME280;16272;48.188;9.964;2024-01-15T11:45:30;94448.81;;;1.27;65.11
29247;BME280;16272;48.188;9.964;2024-01-15T11:50:42;94454.97;;;1.17;64.92
29247;BME280;16272;48.188;9.964;2024-01-15T11:55:44;94459.78;;;1.21;65.27
29247;BME280;16272;48.188;9.964;2024-01-15T11:58:11;94466.13;;;1.19;65.18
29247;BME280;16272;48.188;9.964;2024-01-15T12:00:47;94468.88;;;1.17;64.40
29247;BME280;16272;48.188;9.964;2024-01-15T12:03:13;94463.81;;;1.04;64.87
29247;BME280;16272;48.188;9.964;2024-01-15T12:05:39;94451.19;;;1.09;63.93
29247;BME280;16272;48.188;9.964;2024-01-15T12:08:07;94454.78;;;1.08;64.78
29247;BME280;16272;48.188;9.964;2024-01-15T12:10:39;94457.50;;;1.07;64.77
29247;BME280;16272;48.188;9.964;2024-01-15T12:13:15;94455.91;;;1.16;64.83
29247;BME280;16272;48.188;9.964;2024-01-15T12:15:42;94466.94;;;1.19;65.57
29247;BME280;16272;48.188;9.964;2024-01-15T12:18:09;94458.84;;;1.22;66.12
29247;BME280;16272;48.188;9.964;2024-01-15T12:20:35;94454.66;;;1.10;65.15
29247;BME280;16272;48.188;9.964;2024-01-15T12:23:01;94456.47;;;1.19;66.71
29247;BME280;16272;48.188;9.964;2024-01-15T12:25:29;94460.19;;;0.96;66.85
29247;BME280;16272;48.188;9.964;2024-01-15T12:27:55;94452.72;;;1.12;66.64
29247;BME280;16272;48.188;9.964;2024-01-15T12:30:21;94455.78;;;0.96;67.33
29247;BME280;16272;48.188;9.964;2024-01-15T12:32:46;94465.66;;;0.93;66.26
29247;BME280;16272;48.188;9.964;2024-01-15T12:35:13;94455.03;;;0.73;68.08
29247;BME280;16272;48.188;9.964;2024-01-15T12:37:43;94443.47;;;1.08;65.95
29247;BME280;16272;48.188;9.964;2024-01-15T12:40:10;94442.25;;;0.91;67.73
29247;BME280;16272;48.188;9.964;2024-01-15T12:42:42;94441.63;;;0.99;67.17
29247;BME280;16272;48.188;9.964;2024-01-15T12:45:09;94441.91;;;1.17;67.45
29247;BME280;16272;48.188;9.964;2024-01-15T12:47:36;94448.06;;;1.37;66.92
29247;BME280;16272;48.188;9.964;2024-01-15T12:50:02;94449.47;;;0.99;67.72
29247;BME280;16272;48.188;9.964;2024-01-15T12:52:28;94445.44;;;0.95;68.42
29247;BME280;16272;48.188;9.964;2024-01-15T12:54:54;94444.88;;;1.12;68.12
29247;BME280;16272;48.188;9.964;2024-01-15T12:57:20;94450.69;;;1.16;68.48
29247;BME280;16272;48.188;9.964;2024-01-15T12:59:45;94452.38;;;0.84;68.23
29247;BME280;16272;48.188;9.964;2024-01-15T13:02:12;94453.16;;;0.96;68.28
29247;BME280;16272;48.188;9.964;2024-01-15T13:04:37;94459.28;;;1.27;68.35
29247;BME280;16272;48.188;9.964;2024-01-15T13:07:05;94451.00;;;1.22;68.13
29247;BME280;16272;48.188;9.964;2024-01-15T13:09:30;94448.63;;;1.19;67.87